Latest Weather Observations for Applethorpe

IDN60801

Issued at 10:22 am EST Thursday 21 June 2018 (issued every 10 minutes, with the page automatically refreshed every 10 minutes)

About weather observations | Map of weather stations | Latest weather observations for NSW | Other Formats
Station Details ID: 041175 Name: APPLETHORPE Lat: -28.62 Lon: 151.95 Height: 871.6 m
Data from the previous 72 hours. | See also: Recent months at Applethorpe
Date/Time
EST
Temp
°C
App
Temp
°C
Dew
Point
°C
Rel
Hum
%
Delta-T
°C
Wind Press
QNH
hPa
Press
MSL
hPa
Rain since
9am
mm
Dir  Spd
km/h
Gust
km/h
Spd
kts
Gust
kts
21/10:00am 12.6 9.6 3.9 55 4.1 E 9 19 5 10 1027.1 1026.9 0.0
21/09:30am 11.8 8.8 3.9 58 3.7 E 9 17 5 9 1027.2 1027.0 0.0
21/09:00am 10.8 7.8 4.2 64 3.1 ESE 9 17 5 9 1026.9 1026.8 0.0
21/08:30am 7.6 6.2 3.3 74 1.9 CALM 0 0 0 0 1026.6 1026.5 0.0
21/08:00am 3.2 1.4 1.2 87 0.8 CALM 0 0 0 0 1026.3 1026.2 0.0
21/07:30am 1.2 -0.7 0.4 94 0.3 CALM 0 0 0 0 1026.1 1025.9 0.0
21/07:00am -1.4 - - - - CALM 0 0 0 0 1025.6 1025.5 0.0
21/06:30am -1.6 - - - - NNE 2 4 1 2 1025.3 1025.2 0.0
21/06:00am -1.4 - - - - CALM 0 0 0 0 1025.2 1025.0 0.0
21/05:30am -1.1 - - - - CALM 0 0 0 0 1024.7 1024.5 0.0
21/05:00am -0.9 - - - - CALM 0 0 0 0 1024.4 1024.3 0.0
21/04:30am -1.3 - - - - ENE 4 4 2 2 1024.3 1024.2 0.0
21/04:00am -0.8 - - - - CALM 0 0 0 0 1024.6 1024.4 0.0
21/03:30am -0.4 - - - - CALM 0 2 0 1 1024.6 1024.4 0.0
21/03:00am 0.0 - - - - CALM 0 0 0 0 1024.6 1024.4 0.0
21/02:30am 1.4 -0.6 0.1 91 0.5 CALM 0 2 0 1 1024.8 1024.6 0.0
21/02:00am 1.7 -0.6 0.4 91 0.5 NNW 2 6 1 3 1024.7 1024.5 0.0
21/01:30am 1.9 -0.4 0.6 91 0.5 NNE 2 6 1 3 1024.7 1024.5 0.0
21/01:00am 0.8 -1.6 0.0 94 0.3 ENE 2 4 1 2 1025.1 1024.9 0.0
21/12:30am 1.3 -0.6 0.5 94 0.3 CALM 0 2 0 1 1025.5 1025.4 0.0
21/12:00am 1.9 0.1 1.1 94 0.3 CALM 0 4 0 2 1025.1 1024.9 0.0
 
Date/Time
EST
Temp
°C
App
Temp
°C
Dew
Point
°C
Rel
Hum
%
Delta-T
°C
Wind Press
QNH
hPa
Press
MSL
hPa
Rain since
9am
mm
Dir  Spd
km/h
Gust
km/h
Spd
kts
Gust
kts
20/11:30pm 1.0 -1.0 0.2 94 0.3 CALM 0 0 0 0 1025.2 1025.0 0.0
20/11:00pm 1.6 -0.3 0.6 93 0.4 CALM 0 0 0 0 1025.6 1025.5 0.0
20/10:30pm 2.5 0.7 1.0 90 0.6 CALM 0 0 0 0 1025.3 1025.2 0.0
20/10:00pm 3.1 1.4 1.9 92 0.5 CALM 0 0 0 0 1025.4 1025.3 0.0
20/09:30pm 3.7 2.0 2.0 89 0.7 CALM 0 0 0 0 1025.3 1025.2 0.0
20/09:00pm 4.1 2.4 1.9 85 0.9 CALM 0 0 0 0 1025.4 1025.3 0.0
20/08:30pm 5.6 4.0 2.6 81 1.3 CALM 0 0 0 0 1025.6 1025.5 0.0
20/08:00pm 6.7 5.1 2.3 73 1.9 CALM 0 2 0 1 1025.7 1025.6 0.0
20/07:30pm 5.3 3.2 2.0 79 1.4 NNE 2 4 1 2 1025.9 1025.7 0.0
20/07:00pm 6.4 4.8 2.2 74 1.8 CALM 0 4 0 2 1025.5 1025.4 0.0
20/06:30pm 6.2 3.7 1.7 73 1.9 E 4 7 2 4 1025.1 1024.9 0.0
20/06:00pm 6.8 4.3 1.6 69 2.2 E 4 7 2 4 1025.0 1024.8 0.0
20/05:30pm 7.2 5.3 2.6 72 2.0 ESE 2 4 1 2 1024.7 1024.5 0.0
20/05:00pm 9.8 7.9 2.9 62 3.1 ESE 2 6 1 3 1024.3 1024.2 0.0
20/04:30pm 11.7 8.9 1.9 51 4.4 ESE 6 11 3 6 1024.2 1024.0 0.0
20/04:00pm 12.5 9.1 1.9 48 4.8 ESE 9 15 5 8 1024.0 1023.8 0.0
20/03:30pm 13.1 10.5 3.0 50 4.7 ESE 6 11 3 6 1023.7 1023.5 0.0
20/03:00pm 13.3 10.4 2.4 47 5.0 SE 7 13 4 7 1023.7 1023.5 0.0
20/02:30pm 13.6 10.3 2.3 46 5.2 SE 9 17 5 9 1023.6 1023.4 0.0
20/02:00pm 14.0 10.7 2.6 46 5.3 ESE 9 20 5 11 1023.2 1023.0 0.0
20/01:30pm 13.9 10.3 2.7 46 5.2 ESE 11 24 6 13 1023.1 1022.9 0.0
20/01:00pm 13.9 10.2 2.4 45 5.3 SE 11 24 6 13 1023.1 1022.9 0.0
20/12:30pm 15.4 12.1 2.6 42 6.0 SE 9 19 5 10 1023.1 1022.9 0.0
20/12:00pm 14.4 10.7 2.6 45 5.5 ESE 11 26 6 14 1023.2 1023.0 0.0
20/11:30am 14.2 10.1 2.0 43 5.6 SE 13 26 7 14 1023.5 1023.3 0.0
20/11:00am 13.8 9.7 2.0 44 5.4 SE 13 24 7 13 1023.8 1023.6 0.0
20/10:30am 13.3 8.8 2.1 46 5.1 ESE 15 32 8 17 1024.3 1024.2 0.0
20/10:00am 12.9 9.7 3.0 51 4.6 SE 9 28 5 15 1024.3 1024.2 0.0
20/09:30am 12.0 9.0 3.9 57 3.8 SE 9 22 5 12 1024.2 1024.0 0.0
20/09:00am 9.7 7.6 4.1 68 2.6 SSE 4 9 2 5 1024.2 1024.0 0.0
20/08:30am 6.7 5.5 4.5 86 1.0 CALM 0 2 0 1 1024.1 1023.9 0.0
20/08:00am 2.9 0.9 -0.4 79 1.3 CALM 0 0 0 0 1023.6 1023.4 0.0
20/07:30am -0.6 - - - - CALM 0 4 0 2 1023.0 1022.8 0.0
20/07:00am -2.1 - - - - CALM 0 0 0 0 1022.6 1022.4 0.0
20/06:30am -1.8 - - - - CALM 0 2 0 1 1022.2 1021.9 0.0
20/06:00am -2.4 - - - - CALM 0 0 0 0 1021.8 1021.6 0.0
20/05:30am -2.4 - - - - CALM 0 0 0 0 1021.8 1021.6 0.0
20/05:00am -2.4 - - - - CALM 0 0 0 0 1021.6 1021.4 0.0
20/04:30am -1.9 - - - - CALM 0 4 0 2 1021.5 1021.3 0.0
20/04:00am -2.0 - - - - CALM 0 0 0 0 1021.3 1021.1 0.0
20/03:30am -1.8 - - - - CALM 0 0 0 0 1021.5 1021.3 0.0
20/03:00am -1.7 - - - - CALM 0 0 0 0 1021.5 1021.3 0.0
20/02:30am -1.4 - - - - CALM 0 0 0 0 1021.6 1021.4 0.0
20/02:00am -1.2 - - - - SSW 2 4 1 2 1021.3 1021.1 0.0
20/01:30am -0.8 - - - - CALM 0 0 0 0 1021.0 1020.7 0.0
20/01:00am 0.0 - - - - SW 4 6 2 3 1020.7 1020.5 0.0
20/12:30am -0.5 - - - - WSW 4 6 2 3 1020.7 1020.5 0.0
20/12:00am 1.6 -1.4 1.1 96 0.2 W 6 7 3 4 1020.9 1020.6 0.0
 
Date/Time
EST
Temp
°C
App
Temp
°C
Dew
Point
°C
Rel
Hum
%
Delta-T
°C
Wind Press
QNH
hPa
Press
MSL
hPa
Rain since
9am
mm
Dir  Spd
km/h
Gust
km/h
Spd
kts
Gust
kts
19/11:30pm 1.5 -1.1 0.7 94 0.3 W 4 6 2 3 1021.2 1020.9 0.0
19/11:00pm 2.2 -0.8 0.7 90 0.6 WSW 6 7 3 4 1021.4 1021.2 0.0
19/10:30pm 2.3 -0.7 0.8 90 0.6 SW 6 7 3 4 1021.4 1021.2 0.0
19/10:00pm 3.1 0.9 0.9 85 0.9 S 2 6 1 3 1021.4 1021.2 0.0
19/09:30pm 4.0 1.0 1.1 81 1.2 SW 6 9 3 5 1021.3 1021.1 0.0
19/09:00pm 3.1 -0.1 0.9 85 0.9 SW 7 9 4 5 1021.3 1021.1 0.0
19/08:30pm 3.3 0.7 0.8 84 1.0 WSW 4 6 2 3 1021.2 1020.9 0.0
19/08:00pm 5.1 2.1 0.7 73 1.8 SW 6 7 3 4 1021.3 1021.1 0.0
19/07:30pm 5.3 2.7 0.7 72 1.9 SSW 4 6 2 3 1020.6 1020.4 0.0
19/07:00pm 6.4 2.8 0.3 65 2.5 SSW 9 17 5 9 1020.5 1020.3 0.0
19/06:30pm 7.3 2.9 0.3 61 2.9 SSW 13 19 7 10 1020.2 1019.9 0.0
19/06:00pm 7.6 3.9 0.1 59 3.1 SW 9 19 5 10 1020.2 1019.9 0.0
19/05:30pm 7.7 4.1 0.3 59 3.1 SW 9 17 5 9 1019.7 1019.4 0.0
19/05:00pm 8.0 3.2 0.4 58 3.2 SW 15 28 8 15 1019.3 1019.1 0.0
19/04:30pm 8.5 3.7 0.2 56 3.5 SW 15 24 8 13 1019.0 1018.7 0.0
19/04:00pm 9.8 4.5 -0.8 47 4.4 SW 17 33 9 18 1018.9 1018.6 0.0
19/03:30pm 10.0 5.1 -0.5 48 4.4 SW 15 30 8 16 1018.5 1018.2 0.0
19/03:00pm 9.4 3.6 -0.4 50 4.1 SW 20 35 11 19 1018.2 1017.9 0.0
19/02:30pm 9.5 3.5 -1.6 46 4.5 SW 20 32 11 17 1018.1 1017.8 0.0
19/02:00pm 10.0 5.0 -1.5 44 4.7 SW 15 28 8 15 1018.0 1017.7 0.0
19/01:30pm 9.8 4.0 -1.8 44 4.7 SW 19 30 10 16 1018.3 1018.1 0.0
19/01:00pm 10.6 4.5 -2.2 40 5.2 SW 20 35 11 19 1018.3 1018.1 0.0
19/12:30pm 10.6 4.5 -3.7 36 5.6 SW 19 30 10 16 1018.1 1017.8 0.0
19/12:00pm 10.8 3.6 -4.9 33 6.0 SW 24 39 13 21 1018.7 1018.4 0.0
19/11:30am 10.3 2.7 -5.9 31 6.0 SW 26 41 14 22 1018.8 1018.5 0.0
19/11:00am 9.7 2.5 -4.9 35 5.5 SW 24 37 13 20 1019.3 1019.1 0.0
19/10:30am 9.6 3.7 -0.8 48 4.3 SW 20 30 11 16 1019.4 1019.2 0.0
19/10:00am 8.7 3.9 0.1 55 3.6 SW 15 28 8 15 1019.7 1019.4 0.0
19/09:30am 7.6 3.4 1.5 65 2.6 SW 13 26 7 14 1019.7 1019.4 0.0
19/09:00am 5.5 2.5 2.0 78 1.5 SW 7 13 4 7 1019.4 1019.2 0.0
19/08:30am 4.2 1.2 1.8 84 1.0 SW 7 9 4 5 1019.3 1019.1 0.0
19/08:00am 2.2 0.1 1.5 95 0.3 SW 2 4 1 2 1019.2 1018.9 0.0
19/07:30am 0.2 - - - - SW 4 4 2 2 1019.3 1019.1 0.0
19/07:00am -0.1 - - - - SSW 4 6 2 3 1018.9 1018.6 0.0
19/06:30am 0.9 -2.2 0.4 96 0.2 SW 6 7 3 4 1018.7 1018.4 0.0
19/06:00am 2.0 -1.5 1.0 93 0.4 SW 9 17 5 9 1018.6 1018.3 0.0
19/05:30am 2.7 -1.2 1.0 88 0.7 SW 11 20 6 11 1018.3 1018.1 0.0
19/05:00am 2.5 -0.7 1.0 90 0.6 SW 7 13 4 7 1018.6 1018.3 0.0
19/04:30am 2.5 -1.0 1.0 90 0.6 SW 9 13 5 7 1018.5 1018.2 0.0
19/04:00am 2.1 -1.5 0.8 91 0.5 WSW 9 13 5 7 1018.6 1018.3 0.0
19/03:30am 1.2 -1.9 0.4 94 0.3 WSW 6 9 3 5 1018.5 1018.2 0.0
19/03:00am 1.2 -1.5 0.4 94 0.3 SW 4 7 2 4 1018.8 1018.5 0.0
19/02:30am 1.7 -1.3 0.7 93 0.4 WSW 6 7 3 4 1019.0 1018.7 0.0
19/02:00am 2.7 -0.5 0.7 87 0.8 WSW 7 11 4 6 1019.1 1018.8 0.0
19/01:30am 3.1 -0.1 0.9 85 0.9 SW 7 15 4 8 1019.3 1019.1 0.0
19/01:00am 3.7 -0.3 0.7 81 1.2 SW 11 19 6 10 1019.4 1019.2 0.0
19/12:30am 4.0 0.0 0.8 80 1.3 WSW 11 20 6 11 1019.4 1019.2 0.0
19/12:00am 3.5 0.3 0.8 82 1.1 SW 7 15 4 8 1019.7 1019.4 0.0
 
Date/Time
EST
Temp
°C
App
Temp
°C
Dew
Point
°C
Rel
Hum
%
Delta-T
°C
Wind Press
QNH
hPa
Press
MSL
hPa
Rain since
9am
mm
Dir  Spd
km/h
Gust
km/h
Spd
kts
Gust
kts
18/11:30pm 4.0 0.0 0.8 80 1.3 SW 11 17 6 9 1019.8 1019.5 0.0
18/11:00pm 4.4 0.8 0.7 77 1.5 SW 9 17 5 9 1019.8 1019.5 0.0
18/10:30pm 4.4 1.2 0.7 77 1.5 SW 7 11 4 6 1019.9 1019.6 0.0
18/10:00pm 4.8 1.2 0.6 74 1.7 SW 9 17 5 9 1019.9 1019.6 0.0
18/09:30pm 4.8 1.2 0.6 74 1.7 WSW 9 15 5 8 1019.7 1019.4 0.0
18/09:00pm 5.0 1.8 0.6 73 1.8 WSW 7 15 4 8 1019.8 1019.5 0.0
18/08:30pm 5.4 1.8 0.5 71 2.0 WSW 9 17 5 9 1019.8 1019.5 0.0
18/08:00pm 5.5 1.4 0.1 68 2.2 WSW 11 20 6 11 1019.8 1019.5 0.0
18/07:30pm 5.5 1.8 0.1 68 2.2 SW 9 15 5 8 1019.7 1019.4 0.0
18/07:00pm 5.8 1.7 -0.4 64 2.5 WSW 11 19 6 10 1019.2 1018.9 0.0
18/06:30pm 6.0 1.4 -0.8 61 2.7 SW 13 20 7 11 1018.9 1018.6 0.0
18/06:00pm 6.1 1.6 -0.6 62 2.7 SW 13 24 7 13 1018.5 1018.2 0.0
18/05:30pm 6.4 1.8 -0.8 60 2.9 WSW 13 20 7 11 1017.9 1017.6 0.0
18/05:00pm 6.8 1.5 -0.6 59 3.0 WSW 17 30 9 16 1017.4 1017.1 0.0
18/04:30pm 7.2 1.5 -0.4 58 3.1 SW 19 30 10 16 1017.4 1017.1 0.0
18/04:00pm 8.0 2.3 -0.5 55 3.5 SW 19 30 10 16 1017.0 1016.7 0.0
18/03:30pm 8.2 2.3 -0.5 54 3.6 SW 20 35 11 19 1016.9 1016.6 0.0
18/03:00pm 8.0 1.0 -0.5 55 3.5 WSW 26 43 14 23 1016.6 1016.3 0.0
18/02:30pm 7.7 1.5 -0.3 57 3.3 WSW 22 39 12 21 1016.8 1016.5 0.0
18/02:00pm 7.4 1.2 -0.4 57 3.2 SW 22 37 12 20 1017.2 1016.8 0.0
18/01:30pm 8.0 2.1 -0.5 55 3.5 WSW 20 35 11 19 1017.0 1016.7 0.0
18/01:05pm 7.8 0.4 -0.5 56 3.4 WSW 28 50 15 27 1016.9 1016.6 0.0
18/01:00pm 7.4 0.4 -0.4 57 3.2 W 26 50 14 27 1016.9 1016.6 0.0
18/12:46pm 7.3 -0.1 -0.9 56 3.3 WSW 28 48 15 26 1017.0 1016.7 0.0
18/12:30pm 7.2 1.0 -0.1 60 3.0 WSW 22 35 12 19 1017.3 1016.9 0.0
18/12:10pm 6.7 -0.6 -0.1 62 2.8 WSW 28 46 15 25 1017.6 1017.3 0.0
18/12:00pm 6.8 0.3 0.0 62 2.8 WSW 24 39 13 21 1017.7 1017.4 0.0
18/11:30am 6.5 -0.4 -0.1 63 2.7 SW 26 39 14 21 1018.0 1017.7 0.0
18/11:00am 6.5 -0.4 -0.1 63 2.7 WSW 26 43 14 23 1018.5 1018.2 0.0
18/10:30am 5.7 -0.9 -0.2 66 2.4 WSW 24 46 13 25 1018.3 1018.1 0.0

Other Formats:

Comma delimited format used in spreadsheet applications
http://www.bom.gov.au/fwo/IDN60801/IDN60801.94553.axf

JavaScript Object Notation format (JSON) in row-major order
http://www.bom.gov.au/fwo/IDN60801/IDN60801.94553.json